Time,TemperatureF,DewpointF,PressureIn,WindDirection,WindDirectionDegrees,WindSpeedMPH,WindSpeedGustMPH,Humidity,HourlyPrecipIn,Conditions,Clouds,dailyrainin,SoftwareType,DateUTC
2013-07-26 00:01:00,60.9,59.8,29.82,West,275,0.0,0.0,96,0.00,,---,0.00,VWS V14.01,2013-07-26 05:01:00,
2013-07-26 00:06:00,60.8,59.7,29.82,WSW,240,0.0,0.0,96,0.00,,---,0.00,VWS V14.01,2013-07-26 05:06:00,
2013-07-26 00:11:00,60.7,59.6,29.82,WSW,239,0.0,0.0,96,0.00,,---,0.00,VWS V14.01,2013-07-26 05:11:00,
2013-07-26 00:16:00,60.6,59.5,29.81,WSW,239,0.0,0.0,96,0.00,,---,0.00,VWS V14.01,2013-07-26 05:16:00,
2013-07-26 00:21:00,60.5,59.4,29.81,WSW,240,0.0,0.0,96,0.00,,---,0.00,VWS V14.01,2013-07-26 05:21:00,
2013-07-26 00:26:00,60.3,59.2,29.81,WSW,241,0.0,0.0,96,0.00,,---,0.00,VWS V14.01,2013-07-26 05:26:00,
2013-07-26 00:32:00,60.1,59.0,29.81,WSW,241,0.0,0.0,96,0.00,,---,0.00,VWS V14.01,2013-07-26 05:32:00,
2013-07-26 00:37:00,59.9,58.8,29.81,WSW,241,0.0,0.0,96,0.00,,---,0.00,VWS V14.01,2013-07-26 05:37:00,
2013-07-26 00:42:00,59.8,58.7,29.81,WSW,241,0.0,0.0,96,0.00,,---,0.00,VWS V14.01,2013-07-26 05:42:00,
2013-07-26 00:47:00,59.7,58.6,29.81,WSW,240,0.0,0.0,96,0.00,,---,0.00,VWS V14.01,2013-07-26 05:47:00,
2013-07-26 00:52:00,59.6,58.5,29.81,WSW,241,0.0,0.0,96,0.00,,---,0.00,VWS V14.01,2013-07-26 05:52:00,
2013-07-26 00:57:00,59.6,58.8,29.81,WSW,240,0.0,0.0,97,0.00,,---,0.00,VWS V14.01,2013-07-26 05:57:00,
2013-07-26 01:02:00,59.7,58.8,29.81,WSW,240,0.0,0.0,97,0.00,,---,0.00,VWS V14.01,2013-07-26 06:02:00,
2013-07-26 01:07:00,59.7,58.8,29.81,WSW,241,0.0,0.0,97,0.00,,---,0.00,VWS V14.01,2013-07-26 06:07:00,
2013-07-26 01:12:00,59.6,58.8,29.81,WSW,240,0.0,0.0,97,0.00,,---,0.00,VWS V14.01,2013-07-26 06:12:00,
2013-07-26 01:18:00,59.5,58.7,29.80,WSW,241,0.0,0.0,97,0.00,,---,0.00,VWS V14.01,2013-07-26 06:18:00,
2013-07-26 01:23:00,59.3,58.5,29.80,WSW,239,0.0,0.0,97,0.00,,---,0.00,VWS V14.01,2013-07-26 06:23:00,
2013-07-26 01:28:00,59.2,58.3,29.80,WSW,241,0.0,0.0,97,0.00,,---,0.00,VWS V14.01,2013-07-26 06:28:00,
2013-07-26 01:33:00,59.0,58.2,29.81,WSW,240,0.0,0.0,97,0.00,,---,0.00,VWS V14.01,2013-07-26 06:33:00,
2013-07-26 01:38:00,59.1,58.2,29.81,WSW,241,0.0,0.0,97,0.00,,---,0.00,VWS V14.01,2013-07-26 06:38:00,
2013-07-26 01:43:00,59.1,58.2,29.81,WSW,241,0.0,0.0,97,0.00,,---,0.00,VWS V14.01,2013-07-26 06:43:00,
2013-07-26 01:48:00,59.1,58.2,29.80,WSW,241,0.0,0.0,97,0.00,,---,0.00,VWS V14.01,2013-07-26 06:48:00,
2013-07-26 01:53:00,59.1,58.2,29.80,WSW,241,0.0,0.0,97,0.00,,---,0.00,VWS V14.01,2013-07-26 06:53:00,
2013-07-26 01:58:00,59.0,58.2,29.80,WSW,239,0.0,0.0,97,0.00,,---,0.00,VWS V14.01,2013-07-26 06:58:00,
2013-07-26 02:03:00,59.2,58.6,29.80,WSW,239,0.0,0.0,98,0.00,,---,0.00,VWS V14.01,2013-07-26 07:03:00,
2013-07-26 02:08:00,59.4,58.8,29.80,WSW,239,0.0,0.0,98,0.00,,---,0.00,VWS V14.01,2013-07-26 07:08:00,
2013-07-26 02:13:00,60.0,59.4,29.80,West,261,0.0,3.0,98,0.00,,---,0.00,VWS V14.01,2013-07-26 07:13:00,
2013-07-26 02:18:00,60.2,59.6,29.80,SSW,194,0.0,3.0,98,0.00,,---,0.00,VWS V14.01,2013-07-26 07:18:00,
2013-07-26 02:23:00,60.4,59.8,29.80,SSW,200,0.0,3.0,98,0.00,,---,0.00,VWS V14.01,2013-07-26 07:23:00,
2013-07-26 02:29:00,60.5,59.9,29.80,SE,145,0.0,3.0,98,0.00,,---,0.00,VWS V14.01,2013-07-26 07:29:00,
2013-07-26 02:34:00,60.4,59.8,29.79,SSE,152,0.0,2.0,98,0.00,,---,0.00,VWS V14.01,2013-07-26 07:34:00,
2013-07-26 02:39:00,60.4,59.8,29.79,South,191,0.0,2.0,98,0.00,,---,0.00,VWS V14.01,2013-07-26 07:39:00,
2013-07-26 02:44:00,60.3,59.7,29.79,SSE,167,0.0,2.0,98,0.00,,---,0.00,VWS V14.01,2013-07-26 07:44:00,
2013-07-26 02:49:00,60.2,59.6,29.79,SSW,213,0.0,2.0,98,0.00,,---,0.00,VWS V14.01,2013-07-26 07:49:00,
2013-07-26 02:54:00,60.2,59.6,29.79,SSW,194,0.0,2.0,98,0.00,,---,0.00,VWS V14.01,2013-07-26 07:54:00,
2013-07-26 02:59:00,60.1,59.5,29.78,SSW,194,0.0,2.0,98,0.00,,---,0.00,VWS V14.01,2013-07-26 07:59:00,
2013-07-26 03:05:00,60.0,59.4,29.78,SSW,194,0.0,0.0,98,0.00,,---,0.00,VWS V14.01,2013-07-26 08:05:00,
2013-07-26 03:10:00,60.0,59.4,29.78,SSW,194,0.0,0.0,98,0.00,,---,0.00,VWS V14.01,2013-07-26 08:10:00,
2013-07-26 03:15:00,59.9,59.3,29.79,SSW,194,0.0,0.0,98,0.00,,---,0.00,VWS V14.01,2013-07-26 08:15:00,
2013-07-26 03:20:00,60.0,59.4,29.79,SSW,194,0.0,0.0,98,0.00,,---,0.00,VWS V14.01,2013-07-26 08:20:00,
2013-07-26 03:25:00,60.0,59.4,29.79,SW,226,0.0,2.0,98,0.00,,---,0.00,VWS V14.01,2013-07-26 08:25:00,
2013-07-26 03:30:00,60.0,59.4,29.79,SW,226,0.0,2.0,98,0.00,,---,0.00,VWS V14.01,2013-07-26 08:30:00,
2013-07-26 03:35:00,60.0,59.4,29.79,SW,225,0.0,0.0,98,0.00,,---,0.00,VWS V14.01,2013-07-26 08:35:00,
2013-07-26 03:40:00,60.0,59.4,29.79,SW,225,0.0,0.0,98,0.00,,---,0.00,VWS V14.01,2013-07-26 08:40:00,
2013-07-26 03:45:00,60.0,59.4,29.78,SW,226,0.0,0.0,98,0.00,,---,0.00,VWS V14.01,2013-07-26 08:45:00,
2013-07-26 03:50:00,60.0,59.4,29.78,West,277,0.0,1.0,98,0.00,,---,0.00,VWS V14.01,2013-07-26 08:50:00,
2013-07-26 03:55:00,60.0,59.4,29.78,West,277,0.0,1.0,98,0.00,,---,0.00,VWS V14.01,2013-07-26 08:55:00,
2013-07-26 04:00:00,59.9,59.3,29.79,West,277,0.0,0.0,98,0.00,,---,0.00,VWS V14.01,2013-07-26 09:00:00,
2013-07-26 04:06:00,59.9,59.3,29.79,West,277,0.0,0.0,98,0.00,,---,0.00,VWS V14.01,2013-07-26 09:06:00,
2013-07-26 04:11:00,59.9,59.3,29.79,West,277,0.0,0.0,98,0.00,,---,0.00,VWS V14.01,2013-07-26 09:11:00,
2013-07-26 04:16:00,59.8,59.2,29.77,West,277,0.0,0.0,98,0.00,,---,0.00,VWS V14.01,2013-07-26 09:16:00,
2013-07-26 04:21:00,59.7,59.1,29.77,West,277,0.0,0.0,98,0.00,,---,0.00,VWS V14.01,2013-07-26 09:21:00,
2013-07-26 04:26:00,59.6,59.0,29.77,West,277,0.0,0.0,98,0.00,,---,0.00,VWS V14.01,2013-07-26 09:26:00,
2013-07-26 04:32:00,59.5,58.9,29.77,West,277,0.0,0.0,98,0.00,,---,0.00,VWS V14.01,2013-07-26 09:32:00,
2013-07-26 04:37:00,59.6,59.0,29.77,West,277,0.0,0.0,98,0.00,,---,0.00,VWS V14.01,2013-07-26 09:37:00,
2013-07-26 04:42:00,59.5,58.9,29.77,West,277,0.0,0.0,98,0.00,,---,0.00,VWS V14.01,2013-07-26 09:42:00,
2013-07-26 04:47:00,59.4,58.8,29.77,West,277,0.0,0.0,98,0.00,,---,0.00,VWS V14.01,2013-07-26 09:47:00,
2013-07-26 04:52:00,59.5,58.9,29.77,West,277,0.0,0.0,98,0.00,,---,0.00,VWS V14.01,2013-07-26 09:52:00,
2013-07-26 04:57:00,59.4,58.8,29.77,West,277,0.0,0.0,98,0.00,,---,0.00,VWS V14.01,2013-07-26 09:57:00,
2013-07-26 05:02:00,59.6,59.0,29.76,WNW,283,0.0,0.0,98,0.00,,---,0.00,VWS V14.01,2013-07-26 10:02:00,
2013-07-26 05:07:00,59.7,59.1,29.76,West,281,0.0,0.0,98,0.00,,---,0.00,VWS V14.01,2013-07-26 10:07:00,
2013-07-26 05:12:00,59.5,58.9,29.76,WNW,299,0.0,0.0,98,0.00,,---,0.00,VWS V14.01,2013-07-26 10:12:00,
2013-07-26 05:18:00,59.6,59.0,29.76,WNW,298,0.0,0.0,98,0.00,,---,0.00,VWS V14.01,2013-07-26 10:18:00,
2013-07-26 05:23:00,59.7,59.1,29.76,West,271,0.0,0.0,98,0.00,,---,0.00,VWS V14.01,2013-07-26 10:23:00,
2013-07-26 05:28:00,59.8,59.2,29.76,WNW,283,0.0,2.0,98,0.00,,---,0.00,VWS V14.01,2013-07-26 10:28:00,
2013-07-26 05:33:00,60.0,59.4,29.76,West,266,0.0,1.0,98,0.00,,---,0.00,VWS V14.01,2013-07-26 10:33:00,
2013-07-26 05:38:00,60.0,59.4,29.76,WNW,303,0.0,1.0,98,0.00,,---,0.00,VWS V14.01,2013-07-26 10:38:00,
2013-07-26 05:43:00,59.9,59.3,29.76,NNW,343,0.0,2.0,98,0.00,,---,0.00,VWS V14.01,2013-07-26 10:43:00,
2013-07-26 05:48:00,60.2,59.6,29.75,WSW,253,0.0,2.0,98,0.00,,---,0.00,VWS V14.01,2013-07-26 10:48:00,
2013-07-26 05:53:00,60.3,59.7,29.75,West,267,1.0,3.0,98,0.00,,---,0.00,VWS V14.01,2013-07-26 10:53:00,
2013-07-26 05:59:00,60.5,59.9,29.75,West,259,0.0,3.0,98,0.00,,---,0.00,VWS V14.01,2013-07-26 10:59:00,
2013-07-26 06:04:00,60.5,59.9,29.76,West,273,1.0,2.0,98,0.00,,---,0.00,VWS V14.01,2013-07-26 11:04:00,
2013-07-26 06:09:00,60.6,60.0,29.76,West,273,0.0,2.0,98,0.00,,---,0.00,VWS V14.01,2013-07-26 11:09:00,
2013-07-26 06:14:00,60.7,60.1,29.76,West,273,0.0,2.0,98,0.00,,---,0.00,VWS V14.01,2013-07-26 11:14:00,
2013-07-26 06:20:00,60.7,60.1,29.76,ENE,61,0.0,2.0,98,0.00,,---,0.00,VWS V14.01,2013-07-26 11:20:00,
2013-07-26 06:25:00,60.6,59.8,29.76,ENE,62,0.0,2.0,97,0.00,,---,0.00,VWS V14.01,2013-07-26 11:25:00,
2013-07-26 06:30:00,60.6,60.0,29.76,ENE,61,0.0,2.0,98,0.00,,---,0.00,VWS V14.01,2013-07-26 11:30:00,
2013-07-26 06:35:00,60.7,60.1,29.76,ENE,62,0.0,0.0,98,0.00,,---,0.00,VWS V14.01,2013-07-26 11:35:00,
2013-07-26 06:40:00,60.7,60.1,29.76,ENE,62,0.0,0.0,98,0.00,,---,0.00,VWS V14.01,2013-07-26 11:40:00,
2013-07-26 06:45:00,60.7,60.1,29.76,ENE,62,0.0,0.0,98,0.00,,---,0.00,VWS V14.01,2013-07-26 11:45:00,
2013-07-26 06:50:00,60.8,60.2,29.76,SSE,167,0.0,1.0,98,0.00,,---,0.00,VWS V14.01,2013-07-26 11:50:00,
2013-07-26 06:55:00,61.1,60.5,29.76,SSE,160,0.0,2.0,98,0.00,,---,0.00,VWS V14.01,2013-07-26 11:55:00,
2013-07-26 07:00:00,61.4,60.8,29.76,SW,219,0.0,0.0,98,0.00,,---,0.00,VWS V14.01,2013-07-26 12:00:00,
2013-07-26 07:06:00,61.7,61.1,29.76,SW,233,0.0,0.0,98,0.00,,---,0.00,VWS V14.01,2013-07-26 12:06:00,
2013-07-26 07:11:00,61.8,60.9,29.76,SW,233,0.0,0.0,97,0.00,,---,0.00,VWS V14.01,2013-07-26 12:11:00,
2013-07-26 07:16:00,62.0,61.1,29.76,SW,233,0.0,0.0,97,0.00,,---,0.00,VWS V14.01,2013-07-26 12:16:00,
2013-07-26 07:21:00,62.2,61.3,29.76,WSW,248,0.0,0.0,97,0.00,,---,0.00,VWS V14.01,2013-07-26 12:21:00,
2013-07-26 07:27:00,62.1,61.0,29.76,WSW,245,1.0,2.0,96,0.00,,---,0.00,VWS V14.01,2013-07-26 12:27:00,
2013-07-26 07:32:00,62.0,60.8,29.76,West,272,0.0,1.0,96,0.00,,---,0.00,VWS V14.01,2013-07-26 12:32:00,
2013-07-26 07:37:00,62.0,60.8,29.76,SW,225,0.0,1.0,96,0.00,,---,0.00,VWS V14.01,2013-07-26 12:37:00,
2013-07-26 07:42:00,62.1,60.7,29.76,West,269,0.0,1.0,95,0.00,,---,0.00,VWS V14.01,2013-07-26 12:42:00,
2013-07-26 07:47:00,62.0,60.6,29.76,WNW,287,0.0,1.0,95,0.00,,---,0.00,VWS V14.01,2013-07-26 12:47:00,
2013-07-26 07:52:00,61.9,60.5,29.76,West,261,0.0,1.0,95,0.00,,---,0.00,VWS V14.01,2013-07-26 12:52:00,
2013-07-26 07:57:00,61.8,60.4,29.76,WSW,244,0.0,1.0,95,0.00,,---,0.00,VWS V14.01,2013-07-26 12:57:00,
2013-07-26 08:03:00,61.9,60.5,29.77,SE,144,0.0,0.0,95,0.00,,---,0.00,VWS V14.01,2013-07-26 13:03:00,
2013-07-26 08:08:00,62.0,60.8,29.77,West,268,0.0,0.0,96,0.00,,---,0.00,VWS V14.01,2013-07-26 13:08:00,
2013-07-26 08:13:00,62.0,60.6,29.77,West,267,0.0,0.0,95,0.00,,---,0.00,VWS V14.01,2013-07-26 13:13:00,
2013-07-26 08:18:00,62.0,60.6,29.77,SW,221,0.0,0.0,95,0.00,,---,0.00,VWS V14.01,2013-07-26 13:18:00,
2013-07-26 08:23:00,62.1,60.7,29.77,SSW,197,0.0,0.0,95,0.00,,---,0.00,VWS V14.01,2013-07-26 13:23:00,
2013-07-26 08:28:00,62.2,60.8,29.77,SW,222,0.0,0.0,95,0.00,,---,0.00,VWS V14.01,2013-07-26 13:28:00,
2013-07-26 08:33:00,62.3,61.2,29.76,SW,222,0.0,0.0,96,0.00,,---,0.00,VWS V14.01,2013-07-26 13:33:00,
2013-07-26 08:38:00,62.5,61.3,29.76,SW,230,0.0,0.0,96,0.00,,---,0.00,VWS V14.01,2013-07-26 13:38:00,
2013-07-26 08:44:00,62.5,61.3,29.76,SSE,148,0.0,0.0,96,0.00,,---,0.00,VWS V14.01,2013-07-26 13:44:00,
2013-07-26 08:49:00,62.6,61.2,29.77,SSE,148,0.0,0.0,95,0.00,,---,0.00,VWS V14.01,2013-07-26 13:49:00,
2013-07-26 08:54:00,62.8,61.7,29.77,SE,141,0.0,0.0,96,0.00,,---,0.00,VWS V14.01,2013-07-26 13:54:00,
2013-07-26 08:59:00,63.0,61.8,29.76,SE,137,0.0,0.0,96,0.00,,---,0.00,VWS V14.01,2013-07-26 13:59:00,
2013-07-26 09:05:00,63.5,62.0,29.76,SW,214,0.0,0.0,95,0.00,,---,0.00,VWS V14.01,2013-07-26 14:05:00,
2013-07-26 09:10:00,63.9,62.1,29.76,South,169,0.0,0.0,94,0.00,,---,0.00,VWS V14.01,2013-07-26 14:10:00,
2013-07-26 09:15:00,63.9,61.8,29.76,SSW,194,0.0,2.0,93,0.00,,---,0.00,VWS V14.01,2013-07-26 14:15:00,
2013-07-26 09:20:00,63.8,61.7,29.76,SSW,195,0.0,2.0,93,0.00,,---,0.00,VWS V14.01,2013-07-26 14:20:00,
2013-07-26 09:25:00,63.5,61.4,29.76,SSW,196,0.0,2.0,93,0.00,,---,0.00,VWS V14.01,2013-07-26 14:25:00,
2013-07-26 09:30:00,63.3,61.2,29.76,SSW,195,0.0,0.0,93,0.00,,---,0.00,VWS V14.01,2013-07-26 14:30:00,
2013-07-26 09:35:00,63.3,61.5,29.76,SSW,196,0.0,0.0,94,0.00,,---,0.00,VWS V14.01,2013-07-26 14:35:00,
2013-07-26 09:40:00,63.2,61.5,29.76,SSW,196,0.0,0.0,94,0.00,,---,0.00,VWS V14.01,2013-07-26 14:40:00,
2013-07-26 09:45:00,63.2,61.5,29.76,SSW,196,0.0,0.0,94,0.00,,---,0.00,VWS V14.01,2013-07-26 14:45:00,
2013-07-26 09:51:00,63.2,61.5,29.76,SSW,197,0.0,0.0,94,0.00,,---,0.00,VWS V14.01,2013-07-26 14:51:00,
2013-07-26 09:56:00,63.2,61.8,29.76,SSW,195,0.0,0.0,95,0.00,,---,0.00,VWS V14.01,2013-07-26 14:56:00,
2013-07-26 10:01:00,63.0,61.5,29.76,SSW,196,0.0,0.0,95,0.00,,---,0.00,VWS V14.01,2013-07-26 15:01:00,
2013-07-26 10:06:00,62.8,61.3,29.76,SSE,156,0.0,0.0,95,0.00,,---,0.00,VWS V14.01,2013-07-26 15:06:00,
2013-07-26 10:12:00,62.6,61.2,29.76,SSE,156,0.0,0.0,95,0.00,,---,0.00,VWS V14.01,2013-07-26 15:12:00,
2013-07-26 10:17:00,62.7,61.5,29.75,SSE,156,0.0,0.0,96,0.00,,---,0.00,VWS V14.01,2013-07-26 15:17:00,
2013-07-26 10:22:00,62.8,61.7,29.75,SSE,157,0.0,0.0,96,0.00,,---,0.00,VWS V14.01,2013-07-26 15:22:00,
2013-07-26 10:27:00,63.0,61.8,29.75,SSE,156,0.0,0.0,96,0.00,,---,0.00,VWS V14.01,2013-07-26 15:27:00,
2013-07-26 10:32:00,63.4,62.2,29.75,South,169,0.0,0.0,96,0.00,,---,0.00,VWS V14.01,2013-07-26 15:32:00,
2013-07-26 10:38:00,64.0,63.1,29.75,SW,227,0.0,0.0,97,0.00,,---,0.00,VWS V14.01,2013-07-26 15:38:00,
2013-07-26 10:43:00,64.5,63.3,29.75,SW,217,0.0,0.0,96,0.00,,---,0.00,VWS V14.01,2013-07-26 15:43:00,
2013-07-26 10:48:00,64.5,62.7,29.75,SSE,167,0.0,0.0,94,0.00,,---,0.00,VWS V14.01,2013-07-26 15:48:00,
2013-07-26 10:53:00,64.5,62.7,29.75,SW,221,0.0,0.0,94,0.00,,---,0.00,VWS V14.01,2013-07-26 15:53:00,
2013-07-26 10:59:00,64.6,62.8,29.75,SSW,192,0.0,2.0,94,0.00,,---,0.00,VWS V14.01,2013-07-26 15:59:00,
2013-07-26 11:04:00,65.0,63.2,29.74,SSW,213,0.0,1.0,94,0.00,,---,0.00,VWS V14.01,2013-07-26 16:04:00,
2013-07-26 11:09:00,65.0,62.9,29.74,SSW,213,0.0,1.0,93,0.00,,---,0.00,VWS V14.01,2013-07-26 16:09:00,
2013-07-26 11:14:00,64.9,62.8,29.74,SSW,211,0.0,1.0,93,0.00,,---,0.00,VWS V14.01,2013-07-26 16:14:00,
2013-07-26 11:19:00,64.8,62.7,29.75,SSW,211,0.0,1.0,93,0.00,,---,0.00,VWS V14.01,2013-07-26 16:19:00,
2013-07-26 11:24:00,65.1,63.3,29.75,SSW,211,0.0,1.0,94,0.00,,---,0.00,VWS V14.01,2013-07-26 16:24:00,
2013-07-26 11:29:00,65.3,62.9,29.75,SSW,211,0.0,1.0,92,0.00,,---,0.00,VWS V14.01,2013-07-26 16:29:00,
2013-07-26 11:34:00,65.2,63.1,29.75,SSW,211,0.0,0.0,93,0.00,,---,0.00,VWS V14.01,2013-07-26 16:34:00,
2013-07-26 11:40:00,65.1,62.7,29.75,SSW,211,0.0,0.0,92,0.00,,---,0.00,VWS V14.01,2013-07-26 16:40:00,
2013-07-26 11:45:00,65.4,63.6,29.74,SSW,211,0.0,0.0,94,0.00,,---,0.00,VWS V14.01,2013-07-26 16:45:00,
2013-07-26 11:50:00,65.0,62.6,29.74,SSW,211,0.0,0.0,92,0.00,,---,0.00,VWS V14.01,2013-07-26 16:50:00,
2013-07-26 11:55:00,64.8,62.7,29.74,SSW,212,0.0,0.0,93,0.00,,---,0.00,VWS V14.01,2013-07-26 16:55:00,
2013-07-26 12:00:00,64.5,63.0,29.74,SSW,211,0.0,0.0,95,0.00,,---,0.00,VWS V14.01,2013-07-26 17:00:00,
2013-07-26 12:05:00,64.0,62.2,29.74,SSW,211,0.0,0.0,94,0.00,,---,0.00,VWS V14.01,2013-07-26 17:05:00,
2013-07-26 12:10:00,63.6,61.8,29.74,SSW,211,0.0,0.0,94,0.00,,---,0.00,VWS V14.01,2013-07-26 17:10:00,
2013-07-26 12:16:00,63.2,61.5,29.73,SSW,211,0.0,0.0,94,0.00,,---,0.00,VWS V14.01,2013-07-26 17:16:00,
2013-07-26 12:22:00,62.9,61.2,29.73,SSW,211,0.0,0.0,94,0.00,,---,0.00,VWS V14.01,2013-07-26 17:22:00,
2013-07-26 12:27:00,62.6,60.8,29.73,SSW,211,0.0,0.0,94,0.00,,---,0.00,VWS V14.01,2013-07-26 17:27:00,
2013-07-26 12:32:00,62.6,61.2,29.72,SSW,211,0.0,0.0,95,0.00,,---,0.00,VWS V14.01,2013-07-26 17:32:00,
2013-07-26 12:37:00,62.4,61.0,29.72,SSW,211,0.0,0.0,95,0.00,,---,0.00,VWS V14.01,2013-07-26 17:37:00,
2013-07-26 12:42:00,62.3,61.2,29.72,SSW,211,0.0,0.0,96,0.00,,---,0.00,VWS V14.01,2013-07-26 17:42:00,
2013-07-26 12:47:00,62.2,61.0,29.72,SSW,212,0.0,0.0,96,0.00,,---,0.00,VWS V14.01,2013-07-26 17:47:00,
2013-07-26 12:52:00,62.5,61.6,29.72,SSW,211,0.0,0.0,97,0.00,,---,0.00,VWS V14.01,2013-07-26 17:52:00,
2013-07-26 12:58:00,63.0,62.1,29.72,SSW,211,0.0,0.0,97,0.00,,---,0.00,VWS V14.01,2013-07-26 17:58:00,
2013-07-26 13:03:00,63.4,62.8,29.73,SE,146,0.0,0.0,98,0.00,,---,0.00,VWS V14.01,2013-07-26 18:03:00,
2013-07-26 13:08:00,63.4,62.5,29.73,SE,146,0.0,0.0,97,0.00,,---,0.00,VWS V14.01,2013-07-26 18:08:00,
2013-07-26 13:13:00,63.3,62.1,29.73,SE,146,0.0,0.0,96,0.00,,---,0.00,VWS V14.01,2013-07-26 18:13:00,
2013-07-26 13:18:00,63.3,62.1,29.73,SE,145,0.0,0.0,96,0.00,,---,0.00,VWS V14.01,2013-07-26 18:18:00,
2013-07-26 13:23:00,63.4,62.2,29.73,SE,145,0.0,0.0,96,0.00,,---,0.00,VWS V14.01,2013-07-26 18:23:00,
2013-07-26 13:28:00,64.1,62.9,29.73,SSE,167,0.0,0.0,96,0.00,,---,0.00,VWS V14.01,2013-07-26 18:28:00,
2013-07-26 13:33:00,64.6,62.5,29.73,West,269,0.0,0.0,93,0.00,,---,0.00,VWS V14.01,2013-07-26 18:33:00,
2013-07-26 13:39:00,65.8,64.6,29.73,SW,225,0.0,0.0,96,0.00,,---,0.00,VWS V14.01,2013-07-26 18:39:00,
2013-07-26 13:44:00,66.2,63.5,29.73,SW,217,0.0,0.0,91,0.00,,---,0.00,VWS V14.01,2013-07-26 18:44:00,
2013-07-26 13:49:00,66.5,63.8,29.72,SW,217,0.0,0.0,91,0.00,,---,0.00,VWS V14.01,2013-07-26 18:49:00,
2013-07-26 13:54:00,67.3,64.6,29.72,SW,216,0.0,0.0,91,0.00,,---,0.00,VWS V14.01,2013-07-26 18:54:00,
2013-07-26 13:59:00,68.0,65.0,29.72,WSW,253,0.0,0.0,90,0.00,,---,0.00,VWS V14.01,2013-07-26 18:59:00,
2013-07-26 14:04:00,67.8,62.8,29.72,West,273,0.0,0.0,84,0.00,,---,0.00,VWS V14.01,2013-07-26 19:04:00,
2013-07-26 14:09:00,68.0,64.6,29.72,West,273,0.0,0.0,89,0.00,,---,0.00,VWS V14.01,2013-07-26 19:09:00,
2013-07-26 14:14:00,68.0,62.0,29.72,West,273,0.0,0.0,81,0.00,,---,0.00,VWS V14.01,2013-07-26 19:14:00,
2013-07-26 14:19:00,68.4,64.1,29.72,West,273,0.0,0.0,86,0.00,,---,0.00,VWS V14.01,2013-07-26 19:19:00,
2013-07-26 14:25:00,68.8,63.1,29.72,SSW,203,0.0,0.0,82,0.00,,---,0.00,VWS V14.01,2013-07-26 19:25:00,
2013-07-26 14:30:00,70.0,63.9,29.72,SSW,205,0.0,0.0,81,0.00,,---,0.00,VWS V14.01,2013-07-26 19:30:00,
2013-07-26 14:35:00,70.0,65.3,29.72,West,260,0.0,0.0,85,0.00,,---,0.00,VWS V14.01,2013-07-26 19:35:00,
2013-07-26 14:40:00,69.5,64.8,29.72,West,260,0.0,0.0,85,0.00,,---,0.00,VWS V14.01,2013-07-26 19:40:00,
2013-07-26 14:46:00,69.0,63.6,29.72,SW,228,0.0,0.0,83,0.00,,---,0.00,VWS V14.01,2013-07-26 19:46:00,
2013-07-26 14:51:00,68.1,63.1,29.72,SW,229,0.0,0.0,84,0.00,,---,0.00,VWS V14.01,2013-07-26 19:51:00,
2013-07-26 14:56:00,67.6,63.9,29.72,SW,228,0.0,0.0,88,0.00,,---,0.00,VWS V14.01,2013-07-26 19:56:00,
2013-07-26 15:01:00,68.0,64.6,29.72,West,266,0.0,0.0,89,0.00,,---,0.00,VWS V14.01,2013-07-26 20:01:00,
2013-07-26 15:06:00,68.4,62.3,29.72,WNW,288,2.0,4.0,81,0.00,,---,0.00,VWS V14.01,2013-07-26 20:06:00,
2013-07-26 15:12:00,68.8,61.3,29.72,WSW,253,1.0,5.0,77,0.00,,---,0.00,VWS V14.01,2013-07-26 20:12:00,
2013-07-26 15:17:00,68.4,62.0,29.72,West,269,0.0,5.0,80,0.00,,---,0.00,VWS V14.01,2013-07-26 20:17:00,
2013-07-26 15:22:00,67.7,61.0,29.72,West,264,1.0,5.0,79,0.00,,---,0.00,VWS V14.01,2013-07-26 20:22:00,
2013-07-26 15:27:00,65.2,59.9,29.72,West,279,4.0,13.0,83,0.01,,---,0.01,VWS V14.01,2013-07-26 20:27:00,
2013-07-26 15:32:00,63.3,60.3,29.72,SW,227,1.0,4.0,90,0.01,,---,0.01,VWS V14.01,2013-07-26 20:32:00,
2013-07-26 15:37:00,63.3,61.2,29.72,West,266,1.0,4.0,93,0.01,,---,0.01,VWS V14.01,2013-07-26 20:37:00,
2013-07-26 15:42:00,63.5,61.4,29.72,WSW,253,0.0,4.0,93,0.01,,---,0.01,VWS V14.01,2013-07-26 20:42:00,
2013-07-26 15:47:00,63.1,60.4,29.73,WSW,252,2.0,6.0,91,0.01,,---,0.01,VWS V14.01,2013-07-26 20:47:00,
2013-07-26 15:52:00,62.5,59.5,29.73,WNW,287,1.0,7.0,90,0.01,,---,0.01,VWS V14.01,2013-07-26 20:52:00,
2013-07-26 15:58:00,61.8,59.5,29.73,West,267,1.0,7.0,92,0.01,,---,0.01,VWS V14.01,2013-07-26 20:58:00,
2013-07-26 16:03:00,61.9,60.2,29.73,West,275,1.0,2.0,94,0.01,,---,0.01,VWS V14.01,2013-07-26 21:03:00,
2013-07-26 16:08:00,62.9,61.5,29.73,North,351,1.0,4.0,95,0.01,,---,0.01,VWS V14.01,2013-07-26 21:08:00,
2013-07-26 16:13:00,63.8,61.4,29.73,NNW,339,1.0,9.0,92,0.01,,---,0.01,VWS V14.01,2013-07-26 21:13:00,
2013-07-26 16:18:00,64.2,60.3,29.74,NE,40,2.0,9.0,87,0.01,,---,0.01,VWS V14.01,2013-07-26 21:18:00,
2013-07-26 16:23:00,64.0,60.1,29.74,NE,53,2.0,9.0,87,0.01,,---,0.01,VWS V14.01,2013-07-26 21:23:00,
2013-07-26 16:28:00,64.1,59.5,29.74,West,273,0.0,9.0,85,0.01,,---,0.01,VWS V14.01,2013-07-26 21:28:00,
2013-07-26 16:34:00,64.4,59.8,29.74,NE,42,3.0,3.0,85,0.00,,---,0.01,VWS V14.01,2013-07-26 21:34:00,
2013-07-26 16:39:00,63.8,59.2,29.74,ENE,78,0.0,5.0,85,0.00,,---,0.01,VWS V14.01,2013-07-26 21:39:00,
2013-07-26 16:44:00,63.3,59.0,29.74,ENE,75,0.0,5.0,86,0.00,,---,0.01,VWS V14.01,2013-07-26 21:44:00,
2013-07-26 16:49:00,62.9,58.7,29.75,NW,319,1.0,5.0,86,0.00,,---,0.01,VWS V14.01,2013-07-26 21:49:00,
2013-07-26 16:54:00,62.3,58.1,29.75,ENE,61,0.0,5.0,86,0.00,,---,0.01,VWS V14.01,2013-07-26 21:54:00,
2013-07-26 16:59:00,61.7,57.2,29.77,ESE,108,9.0,9.0,85,0.00,,---,0.01,VWS V14.01,2013-07-26 21:59:00,
2013-07-26 17:04:00,61.2,57.0,29.77,SW,227,0.0,4.0,86,0.00,,---,0.01,VWS V14.01,2013-07-26 22:04:00,
2013-07-26 17:10:00,61.0,57.1,29.77,WSW,257,2.0,4.0,87,0.00,,---,0.01,VWS V14.01,2013-07-26 22:10:00,
2013-07-26 17:15:00,60.9,56.7,29.77,ENE,69,2.0,4.0,86,0.00,,---,0.01,VWS V14.01,2013-07-26 22:15:00,
2013-07-26 17:20:00,60.8,56.3,29.77,WNW,283,3.0,4.0,85,0.00,,---,0.01,VWS V14.01,2013-07-26 22:20:00,
2013-07-26 17:25:00,61.2,56.7,29.77,NNE,19,2.0,5.0,85,0.00,,---,0.01,VWS V14.01,2013-07-26 22:25:00,
2013-07-26 17:30:00,61.7,56.8,29.78,NNE,19,2.0,3.0,84,0.00,,---,0.01,VWS V14.01,2013-07-26 22:30:00,
2013-07-26 17:35:00,61.7,56.2,29.78,NNE,19,1.0,6.0,82,0.00,,---,0.01,VWS V14.01,2013-07-26 22:35:00,
2013-07-26 17:41:00,61.0,55.5,29.78,West,272,5.0,6.0,82,0.00,,---,0.01,VWS V14.01,2013-07-26 22:41:00,
2013-07-26 17:46:00,59.6,54.4,29.80,SW,221,2.0,6.0,83,0.00,,---,0.01,VWS V14.01,2013-07-26 22:46:00,
2013-07-26 17:52:00,58.3,53.5,29.80,WSW,256,3.0,7.0,84,0.00,,---,0.01,VWS V14.01,2013-07-26 22:52:00,
2013-07-26 17:57:00,57.2,53.1,29.80,WNW,288,0.0,7.0,86,0.00,,---,0.01,VWS V14.01,2013-07-26 22:57:00,
2013-07-26 18:02:00,56.7,52.6,29.81,West,275,0.0,3.0,86,0.00,,---,0.01,VWS V14.01,2013-07-26 23:02:00,
2013-07-26 18:07:00,56.4,52.6,29.81,WSW,246,4.0,4.0,87,0.00,,---,0.01,VWS V14.01,2013-07-26 23:07:00,
2013-07-26 18:12:00,55.8,51.7,29.81,West,275,1.0,5.0,86,0.00,,---,0.01,VWS V14.01,2013-07-26 23:12:00,
2013-07-26 18:17:00,55.3,51.5,29.81,WSW,241,4.0,6.0,87,0.00,,---,0.01,VWS V14.01,2013-07-26 23:17:00,
2013-07-26 18:23:00,54.7,50.6,29.81,NW,326,2.0,6.0,86,0.00,,---,0.01,VWS V14.01,2013-07-26 23:23:00,
2013-07-26 18:28:00,54.3,50.5,29.81,West,280,1.0,6.0,87,0.00,,---,0.01,VWS V14.01,2013-07-26 23:28:00,
2013-07-26 18:33:00,54.1,50.6,29.82,West,259,1.0,4.0,88,0.00,,---,0.01,VWS V14.01,2013-07-26 23:33:00,
2013-07-26 18:38:00,53.7,49.9,29.82,SW,223,4.0,5.0,87,0.00,,---,0.01,VWS V14.01,2013-07-26 23:38:00,
2013-07-26 18:43:00,53.4,49.9,29.82,NW,311,1.0,5.0,88,0.00,,---,0.01,VWS V14.01,2013-07-26 23:43:00,
2013-07-26 18:48:00,53.2,49.7,29.83,SW,232,2.0,8.0,88,0.00,,---,0.01,VWS V14.01,2013-07-26 23:48:00,
2013-07-26 18:53:00,52.9,49.1,29.83,NNE,16,1.0,8.0,87,0.00,,---,0.01,VWS V14.01,2013-07-26 23:53:00,
2013-07-26 18:59:00,52.9,49.1,29.83,West,259,3.0,8.0,87,0.00,,---,0.01,VWS V14.01,2013-07-26 23:59:00,
2013-07-26 19:04:00,52.6,48.8,29.84,WSW,256,0.0,5.0,87,0.00,,---,0.01,VWS V14.01,2013-07-27 00:04:00,
2013-07-26 19:09:00,52.5,49.0,29.84,West,269,2.0,5.0,88,0.00,,---,0.01,VWS V14.01,2013-07-27 00:09:00,
2013-07-26 19:14:00,52.4,49.0,29.84,West,260,0.0,7.0,88,0.00,,---,0.01,VWS V14.01,2013-07-27 00:14:00,
2013-07-26 19:19:00,52.4,48.7,29.85,NNE,27,3.0,7.0,87,0.00,,---,0.01,VWS V14.01,2013-07-27 00:19:00,
2013-07-26 19:24:00,52.4,49.0,29.85,WSW,253,0.0,7.0,88,0.00,,---,0.01,VWS V14.01,2013-07-27 00:24:00,
2013-07-26 19:29:00,52.4,49.0,29.86,ENE,77,1.0,7.0,88,0.00,,---,0.01,VWS V14.01,2013-07-27 00:29:00,
2013-07-26 19:34:00,52.4,49.0,29.86,West,274,1.0,3.0,88,0.00,,---,0.01,VWS V14.01,2013-07-27 00:34:00,
2013-07-26 19:39:00,52.3,49.2,29.86,NNW,338,0.0,3.0,89,0.00,,---,0.01,VWS V14.01,2013-07-27 00:39:00,
2013-07-26 19:44:00,52.2,49.1,29.86,WSW,257,2.0,3.0,89,0.00,,---,0.01,VWS V14.01,2013-07-27 00:44:00,
2013-07-26 19:50:00,52.0,48.6,29.86,NNW,333,0.0,4.0,88,0.00,,---,0.01,VWS V14.01,2013-07-27 00:50:00,
2013-07-26 19:55:00,51.8,48.4,29.86,East,85,0.0,4.0,88,0.00,,---,0.01,VWS V14.01,2013-07-27 00:55:00,
2013-07-26 20:00:00,51.7,48.3,29.86,NNW,340,0.0,5.0,88,0.00,,---,0.01,VWS V14.01,2013-07-27 01:00:00,
2013-07-26 20:05:00,51.7,48.6,29.86,SW,221,0.0,4.0,89,0.00,,---,0.01,VWS V14.01,2013-07-27 01:05:00,
2013-07-26 20:10:00,51.7,48.3,29.86,WSW,256,0.0,4.0,88,0.00,,---,0.01,VWS V14.01,2013-07-27 01:10:00,
2013-07-26 20:15:00,51.6,48.5,29.86,WNW,294,3.0,4.0,89,0.00,,---,0.01,VWS V14.01,2013-07-27 01:15:00,
2013-07-26 20:17:00,51.6,48.5,29.86,SW,229,0.0,4.0,89,0.00,,---,0.01,VWS V14.01,2013-07-27 01:17:00,
2013-07-26 20:22:00,51.4,48.0,29.86,North,355,0.0,4.0,88,0.00,,---,0.01,VWS V14.01,2013-07-27 01:22:00,
2013-07-26 20:27:00,51.1,47.7,29.86,SE,132,1.0,7.0,88,0.00,,---,0.01,VWS V14.01,2013-07-27 01:27:00,
2013-07-26 20:28:00,51.0,47.6,29.86,North,355,0.0,7.0,88,0.00,,---,0.01,VWS V14.01,2013-07-27 01:28:00,
2013-07-26 20:33:00,50.9,47.8,29.87,West,281,0.0,3.0,89,0.00,,---,0.01,VWS V14.01,2013-07-27 01:33:00,
2013-07-26 20:38:00,50.8,48.0,29.87,WNW,296,1.0,4.0,90,0.00,,---,0.01,VWS V14.01,2013-07-27 01:38:00,
2013-07-26 20:43:00,50.6,47.8,29.87,West,260,0.0,4.0,90,0.00,,---,0.01,VWS V14.01,2013-07-27 01:43:00,
2013-07-26 20:49:00,50.5,47.7,29.86,WSW,253,0.0,4.0,90,0.00,,---,0.01,VWS V14.01,2013-07-27 01:49:00,
2013-07-26 20:54:00,50.5,47.4,29.86,East,88,2.0,4.0,89,0.00,,---,0.01,VWS V14.01,2013-07-27 01:54:00,
2013-07-26 21:01:00,50.4,47.0,29.87,WNW,288,0.0,0.0,88,0.00,,---,0.01,VWS V14.01,2013-07-27 02:01:00,
2013-07-26 21:06:00,50.3,46.9,29.87,ENE,78,1.0,3.0,88,0.00,,---,0.01,VWS V14.01,2013-07-27 02:06:00,
2013-07-26 21:11:00,50.2,46.8,29.87,NNE,20,0.0,3.0,88,0.00,,---,0.01,VWS V14.01,2013-07-27 02:11:00,
2013-07-26 21:16:00,50.2,46.8,29.88,NE,34,1.0,3.0,88,0.00,,---,0.01,VWS V14.01,2013-07-27 02:16:00,
2013-07-26 21:21:00,50.1,46.7,29.88,SSE,157,0.0,3.0,88,0.00,,---,0.01,VWS V14.01,2013-07-27 02:21:00,
2013-07-26 21:26:00,50.0,46.6,29.88,WSW,244,1.0,3.0,88,0.00,,---,0.01,VWS V14.01,2013-07-27 02:26:00,
2013-07-26 21:31:00,49.8,46.4,29.87,NW,319,0.0,1.0,88,0.00,,---,0.01,VWS V14.01,2013-07-27 02:31:00,
2013-07-26 21:36:00,49.7,46.3,29.87,WNW,290,1.0,2.0,88,0.00,,---,0.01,VWS V14.01,2013-07-27 02:36:00,
2013-07-26 21:41:00,49.6,46.2,29.87,West,261,0.0,2.0,88,0.00,,---,0.01,VWS V14.01,2013-07-27 02:41:00,
2013-07-26 21:46:00,49.6,46.5,29.87,WNW,300,0.0,5.0,89,0.00,,---,0.01,VWS V14.01,2013-07-27 02:46:00,
2013-07-26 21:51:00,49.5,46.4,29.87,WSW,254,1.0,5.0,89,0.00,,---,0.01,VWS V14.01,2013-07-27 02:51:00,
2013-07-26 21:56:00,49.4,46.6,29.87,SW,231,0.0,5.0,90,0.00,,---,0.01,VWS V14.01,2013-07-27 02:56:00,
2013-07-26 22:02:00,49.3,46.5,29.88,WSW,246,0.0,2.0,90,0.00,,---,0.01,VWS V14.01,2013-07-27 03:02:00,
2013-07-26 22:07:00,49.3,46.5,29.88,WSW,258,0.0,2.0,90,0.00,,---,0.01,VWS V14.01,2013-07-27 03:07:00,
2013-07-26 22:12:00,49.3,46.8,29.88,WSW,248,0.0,2.0,91,0.00,,---,0.01,VWS V14.01,2013-07-27 03:12:00,
2013-07-26 22:17:00,49.3,46.8,29.87,NNW,342,0.0,3.0,91,0.00,,---,0.01,VWS V14.01,2013-07-27 03:17:00,
2013-07-26 22:22:00,49.2,46.7,29.87,West,259,2.0,3.0,91,0.00,,---,0.01,VWS V14.01,2013-07-27 03:22:00,
2013-07-26 22:27:00,49.0,46.5,29.87,West,279,1.0,3.0,91,0.00,,---,0.01,VWS V14.01,2013-07-27 03:27:00,
2013-07-26 22:32:00,48.9,46.7,29.87,SW,230,0.0,0.0,92,0.00,,---,0.01,VWS V14.01,2013-07-27 03:32:00,
2013-07-26 22:37:00,48.8,46.6,29.87,West,272,0.0,0.0,92,0.00,,---,0.01,VWS V14.01,2013-07-27 03:37:00,
2013-07-26 22:43:00,48.8,46.6,29.87,WSW,252,0.0,0.0,92,0.00,,---,0.01,VWS V14.01,2013-07-27 03:43:00,
2013-07-26 22:48:00,48.7,46.5,29.87,West,275,0.0,4.0,92,0.00,,---,0.01,VWS V14.01,2013-07-27 03:48:00,
2013-07-26 22:53:00,48.5,46.3,29.87,West,272,3.0,5.0,92,0.00,,---,0.01,VWS V14.01,2013-07-27 03:53:00,
2013-07-26 22:58:00,48.2,45.7,29.87,West,273,2.0,5.0,91,0.00,,---,0.01,VWS V14.01,2013-07-27 03:58:00,
2013-07-26 23:02:00,48.0,45.5,29.86,WSW,258,2.0,4.0,91,0.00,,---,0.01,VWS V14.01,2013-07-27 04:02:00,
2013-07-26 23:03:00,48.0,45.5,29.86,West,280,1.0,4.0,91,0.00,,---,0.01,VWS V14.01,2013-07-27 04:03:00,
2013-07-26 23:04:00,47.9,45.4,29.86,West,269,0.0,4.0,91,0.00,,---,0.01,VWS V14.01,2013-07-27 04:04:00,
2013-07-26 23:09:00,47.8,45.6,29.86,West,280,0.0,4.0,92,0.00,,---,0.01,VWS V14.01,2013-07-27 04:09:00,
2013-07-26 23:14:00,47.8,45.3,29.86,West,275,1.0,4.0,91,0.00,,---,0.01,VWS V14.01,2013-07-27 04:14:00,
2013-07-26 23:19:00,47.7,45.5,29.86,West,275,1.0,4.0,92,0.00,,---,0.01,VWS V14.01,2013-07-27 04:19:00,
2013-07-26 23:24:00,47.7,45.2,29.86,WNW,285,3.0,4.0,91,0.00,,---,0.01,VWS V14.01,2013-07-27 04:24:00,
2013-07-26 23:29:00,47.7,45.2,29.86,West,264,0.0,4.0,91,0.00,,---,0.01,VWS V14.01,2013-07-27 04:29:00,
2013-07-26 23:35:00,47.7,45.2,29.86,WSW,257,1.0,2.0,91,0.00,,---,0.01,VWS V14.01,2013-07-27 04:35:00,
2013-07-26 23:40:00,47.6,45.1,29.86,West,271,1.0,2.0,91,0.00,,---,0.01,VWS V14.01,2013-07-27 04:40:00,
2013-07-26 23:45:00,47.5,45.0,29.86,SW,227,1.0,3.0,91,0.00,,---,0.01,VWS V14.01,2013-07-27 04:45:00,
2013-07-26 23:50:00,47.4,44.6,29.86,WSW,252,0.0,5.0,90,0.00,,---,0.01,VWS V14.01,2013-07-27 04:50:00,
2013-07-26 23:55:00,47.3,44.8,29.86,West,263,1.0,5.0,91,0.00,,---,0.01,VWS V14.01,2013-07-27 04:55:00,